Takatori — JL6597 — position and weather

sailwx.info

Track history (hours):
 
Tides and Currents Weather Stations Pressure Air Temp Water Temp Dewpoint Dewpoint Depression Visibility Wind Speed Wind Dir Waves Ship Positions

Takatori

Last reported at 2018-Feb-19 04:00 UTC. Time now 2018-Feb-19 04:01 UTC.
Position N 34°39' E 135°15'.

Length 74 m; draft 4 m.

Type: Cargo ship. MMSI: 431501607.

Date/timePositionNaut miles runAvg speedWind from/ knotsBaromVisibWave heightAir tempDewpointWater temp
2018-Feb-19 04:00N 34°39' E 135°15'0 0.0
2018-Feb-19 03:27N 34°39' E 135°15'0 0.0
2018-Feb-19 03:00N 34°39' E 135°15'2 4.6
2018-Feb-19 02:30N 34°41' E 135°17'0 0.0
2018-Feb-19 01:59N 34°41' E 135°17'0 0.5
2018-Feb-19 01:29N 34°41' E 135°16'2 4.6
2018-Feb-19 01:00N 34°39' E 135°16'0 0.4
2018-Feb-19 00:28N 34°39' E 135°15'0 0.1
2018-Feb-19 00:00N 34°39' E 135°15'0 0.1
2018-Feb-18 23:30N 34°39' E 135°15'0 0.0
2018-Feb-18 23:00N 34°39' E 135°15'0 0.0
2018-Feb-18 22:29N 34°39' E 135°15'0 0.0
2018-Feb-18 21:59N 34°39' E 135°15'0 0.0
2018-Feb-18 21:29N 34°39' E 135°15'0 0.1
2018-Feb-18 20:59N 34°39' E 135°15'2 5.0
2018-Feb-18 20:30N 34°37' E 135°13'611.0
2018-Feb-18 20:00N 34°35' E 135°07'713.2
2018-Feb-18 19:31N 34°37' E 134°59'714.2
2018-Feb-18 19:00N 34°34' E 134°51'612.4
2018-Feb-18 18:30N 34°32' E 134°44'611.5
2018-Feb-18 18:00N 34°30' E 134°38'611.2
2018-Feb-18 17:29N 34°27' E 134°31'9210.1
2018-Feb-18 08:19N 33°59' E 132°45'3 9.8
2018-Feb-18 08:00N 33°57' E 132°42'5910.1
2018-Feb-18 02:10N 33°19' E 131°48'211.2
2018-Feb-18 02:00N 33°18' E 131°47'3 1.1
2018-Feb-17 23:08N 33°15' E 131°44'0 0.0
2018-Feb-17 22:56N 33°15' E 131°44'0 0.0
2018-Feb-17 22:20N 33°15' E 131°44'7 5.5
2018-Feb-17 21:07N 33°22' E 131°42'0 0.0
2018-Feb-17 20:43N 33°22' E 131°42'0 0.2
2018-Feb-17 20:25N 33°22' E 131°42'0 0.1
2018-Feb-17 19:58N 33°22' E 131°42'0 0.0
2018-Feb-17 19:25N 33°22' E 131°42'0 0.0
2018-Feb-17 18:55N 33°22' E 131°42'0 0.0
2018-Feb-17 18:19N 33°22' E 131°42'0 0.0
2018-Feb-17 17:55N 33°22' E 131°42'0 0.0
2018-Feb-17 17:25N 33°22' E 131°42'0 0.0
2018-Feb-17 16:55N 33°22' E 131°42'0 0.0
2018-Feb-17 16:25N 33°22' E 131°42'0 0.0
2018-Feb-17 15:55N 33°22' E 131°42'0 0.0
2018-Feb-17 15:22N 33°22' E 131°42'0 0.0
2018-Feb-17 14:52N 33°22' E 131°42'0 0.0
2018-Feb-17 14:25N 33°22' E 131°42'0 0.1
2018-Feb-17 13:55N 33°22' E 131°42'0 0.1
2018-Feb-17 13:19N 33°22' E 131°42'0 0.0
2018-Feb-17 12:55N 33°22' E 131°42'0 0.0
2018-Feb-17 12:22N 33°22' E 131°42'0 0.1
2018-Feb-17 11:55N 33°22' E 131°42'0 0.1
2018-Feb-17 11:28N 33°22' E 131°42'0 0.1
2018-Feb-17 10:58N 33°22' E 131°42'1 1.6
2018-Feb-17 10:28N 33°22' E 131°43'611.3
2018-Feb-17 09:56N 33°25' E 131°49'14210.6
2018-Feb-16 20:30N 34°26' E 134°24'610.7
2018-Feb-16 19:59N 34°28' E 134°31'510.6
2018-Feb-16 19:30N 34°30' E 134°36'510.6
2018-Feb-16 19:00N 34°32' E 134°42'510.1
2018-Feb-16 18:30N 34°34' E 134°48'4 8.8
2018-Feb-16 18:01N 34°35' E 134°53'4 8.2
2018-Feb-16 17:31N 34°37' E 134°57'4 7.3
2018-Feb-16 17:00N 34°37' E 135°02'4 8.4
2018-Feb-16 16:30N 34°37' E 135°07'611.2
2018-Feb-16 16:00N 34°38' E 135°14'2 4.6
2018-Feb-16 15:29N 34°40' E 135°14'0 0.0
2018-Feb-16 14:59N 34°40' E 135°14'0 0.0
2018-Feb-16 14:29N 34°40' E 135°14'0 0.0
2018-Feb-16 13:58N 34°40' E 135°14'0 0.0
2018-Feb-16 13:30N 34°40' E 135°14'0 0.0
2018-Feb-16 13:00N 34°40' E 135°14'0 0.0
2018-Feb-16 12:30N 34°40' E 135°14'0 0.0
2018-Feb-16 12:00N 34°40' E 135°14'0 0.0
2018-Feb-16 11:30N 34°40' E 135°14'0 0.0
2018-Feb-16 10:59N 34°40' E 135°14'0 0.0
2018-Feb-16 10:29N 34°40' E 135°14'0 0.0
2018-Feb-16 09:59N 34°40' E 135°14'0 0.0
2018-Feb-16 09:30N 34°40' E 135°14'0 0.0
2018-Feb-16 08:58N 34°40' E 135°14'0 0.0
2018-Feb-16 08:28N 34°40' E 135°14'0 0.0
2018-Feb-16 07:58N 34°40' E 135°14'0 0.0
2018-Feb-16 07:28N 34°40' E 135°14'0 0.0
2018-Feb-16 06:58N 34°40' E 135°14'2 4.2
2018-Feb-16 06:30N 34°41' E 135°16'0 0.9
2018-Feb-16 05:59N 34°41' E 135°17'0 0.0
2018-Feb-16 05:30N 34°41' E 135°17'2 4.8
2018-Feb-16 05:00N 34°39' E 135°15'0 0.5
2018-Feb-16 04:30N 34°39' E 135°15'1 1.2
2018-Feb-16 04:00N 34°39' E 135°15'0 0.0
2018-Feb-16 03:30N 34°39' E 135°15'0 0.1
2018-Feb-16 03:00N 34°39' E 135°15'0 0.0
2018-Feb-16 02:30N 34°39' E 135°15'0 0.0
2018-Feb-16 02:00N 34°39' E 135°15'0 0.0
2018-Feb-16 01:30N 34°39' E 135°15'0 0.0
2018-Feb-16 01:00N 34°39' E 135°15'0 0.0
2018-Feb-16 00:30N 34°39' E 135°15'0 0.0
2018-Feb-16 00:00N 34°39' E 135°15'0 0.0
2018-Feb-15 23:28N 34°39' E 135°15'0 0.0
2018-Feb-15 23:00N 34°39' E 135°15'0 0.0
2018-Feb-15 22:30N 34°39' E 135°15'0 0.0
2018-Feb-15 22:00N 34°39' E 135°15'0 0.0
2018-Feb-15 21:30N 34°39' E 135°15'0 0.0
2018-Feb-15 21:00N 34°39' E 135°15'0 0.0
2018-Feb-15 20:30N 34°39' E 135°15'0 0.1
2018-Feb-15 20:00N 34°39' E 135°15'4 7.6
2018-Feb-15 19:30N 34°37' E 135°11'611.8
2018-Feb-15 19:00N 34°35' E 135°04'713.2
2018-Feb-15 18:30N 34°36' E 134°56'713.5
2018-Feb-15 18:01N 34°33' E 134°49'612.0
2018-Feb-15 17:30N 34°31' E 134°42'511.3
2018-Feb-15 17:01N 34°29' E 134°36'9810.7
2018-Feb-15 07:52N 34°06' E 132°41'411.1
2018-Feb-15 07:30N 34°04' E 132°36'810.2
2018-Feb-15 06:42N 34°05' E 132°27'611.4
2018-Feb-15 06:11N 34°08' E 132°21'311.3
2018-Feb-15 05:57N 34°10' E 132°18'410.2
2018-Feb-15 05:30N 34°13' E 132°15'0 0.1
2018-Feb-15 04:51N 34°13' E 132°15'0 0.0
2018-Feb-15 04:30N 34°13' E 132°15'0 0.0
2018-Feb-15 04:00N 34°13' E 132°15'0 0.0
2018-Feb-15 03:24N 34°13' E 132°15'0 0.0
2018-Feb-15 02:54N 34°13' E 132°15'0 0.7
2018-Feb-15 02:29N 34°13' E 132°15'0 0.0
2018-Feb-15 01:56N 34°13' E 132°15'0 0.0
2018-Feb-15 01:23N 34°13' E 132°15'0 0.0
2018-Feb-15 00:56N 34°13' E 132°15'0 0.0
2018-Feb-15 00:20N 34°13' E 132°15'0 0.0
2018-Feb-14 23:50N 34°13' E 132°15'0 0.0
2018-Feb-14 23:29N 34°13' E 132°15'0 0.0
2018-Feb-14 22:59N 34°13' E 132°15'0 0.0
2018-Feb-14 22:29N 34°13' E 132°15'1 0.8
2018-Feb-14 21:48N 34°13' E 132°15'0 0.0
2018-Feb-14 21:25N 34°13' E 132°15'0 0.0
2018-Feb-14 20:43N 34°13' E 132°15'0 0.0
2018-Feb-14 20:25N 34°13' E 132°15'0 0.0
2018-Feb-14 19:48N 34°13' E 132°15'0 0.1
2018-Feb-14 19:30N 34°13' E 132°15'510.0
2018-Feb-14 18:58N 34°09' E 132°19'1111.7
2018-Feb-14 18:00N 34°03' E 132°31'611.5
2018-Feb-14 17:30N 34°04' E 132°38'9311.6
2018-Feb-14 09:33N 34°27' E 134°26'211.9
2018-Feb-14 09:25N 34°28' E 134°28'511.6
2018-Feb-14 09:00N 34°29' E 134°33'611.5
2018-Feb-14 08:30N 34°31' E 134°40'611.6
2018-Feb-14 08:00N 34°33' E 134°46'611.4
2018-Feb-14 07:29N 34°36' E 134°53'510.7
2018-Feb-14 07:00N 34°37' E 134°59'5 9.1
2018-Feb-14 06:30N 34°36' E 135°04'511.0
2018-Feb-14 06:01N 34°37' E 135°11'5 9.1
2018-Feb-14 05:31N 34°40' E 135°15'2 3.0
2018-Feb-14 04:58N 34°41' E 135°17'0 0.9
2018-Feb-14 04:30N 34°41' E 135°16'2 4.4
2018-Feb-14 04:00N 34°39' E 135°15'0 0.0
2018-Feb-14 03:30N 34°39' E 135°15'0 0.0
2018-Feb-14 03:00N 34°39' E 135°15'0 0.0
2018-Feb-14 02:30N 34°39' E 135°15'0 0.0
2018-Feb-14 02:00N 34°39' E 135°15'0 0.1
2018-Feb-14 01:30N 34°39' E 135°15'0 0.0
2018-Feb-14 01:00N 34°39' E 135°15'0 0.0
2018-Feb-14 00:30N 34°39' E 135°15'0 0.1
2018-Feb-14 00:00N 34°39' E 135°15'0 0.0
2018-Feb-13 23:30N 34°39' E 135°15'0 0.0
2018-Feb-13 23:00N 34°39' E 135°15'0 0.0
2018-Feb-13 22:30N 34°39' E 135°15'0 0.0
2018-Feb-13 22:00N 34°38' E 135°15'0 0.1
2018-Feb-13 21:30N 34°38' E 135°15'0 0.1
2018-Feb-13 21:00N 34°39' E 135°15'0 0.0
2018-Feb-13 20:30N 34°39' E 135°15'0 0.0
2018-Feb-13 20:00N 34°39' E 135°15'0 0.0
2018-Feb-13 19:30N 34°39' E 135°15'0 0.0
2018-Feb-13 19:00N 34°39' E 135°15'0 0.0
2018-Feb-13 18:30N 34°39' E 135°15'0 0.0
2018-Feb-13 18:00N 34°39' E 135°15'0 0.1
2018-Feb-13 17:30N 34°38' E 135°15'0 0.0
2018-Feb-13 17:00N 34°39' E 135°15'0 0.0
2018-Feb-13 16:30N 34°39' E 135°15'0 0.0
2018-Feb-13 16:00N 34°39' E 135°15'0 0.1
2018-Feb-13 15:30N 34°38' E 135°15'5 9.4
2018-Feb-13 15:00N 34°36' E 135°10'611.9
2018-Feb-13 14:30N 34°36' E 135°03'612.4
2018-Feb-13 14:00N 34°36' E 134°56'612.8
2018-Feb-13 13:30N 34°33' E 134°49'612.0
2018-Feb-13 12:58N 34°31' E 134°41'611.8
2018-Feb-13 12:30N 34°29' E 134°35'9710.4
2018-Feb-13 03:09N 34°05' E 132°41'211.5
2018-Feb-13 03:00N 34°05' E 132°39'16 9.2
2018-Feb-13 01:15N 34°13' E 132°22'311.8
2018-Feb-13 01:00N 34°16' E 132°22'611.5
2018-Feb-13 00:31N 34°20' E 132°26'1 1.8
2018-Feb-12 23:59N 34°21' E 132°26'0 0.0
2018-Feb-12 23:29N 34°21' E 132°26'0 1.0
2018-Feb-12 23:00N 34°21' E 132°26'1 1.1
2018-Feb-12 22:28N 34°20' E 132°26'0 0.0
2018-Feb-12 21:58N 34°20' E 132°26'0 0.0
2018-Feb-12 21:28N 34°20' E 132°26'0 0.0
2018-Feb-12 20:58N 34°20' E 132°26'0 0.0
2018-Feb-12 20:28N 34°20' E 132°26'0 0.0
2018-Feb-12 20:00N 34°20' E 132°26'4 7.5
2018-Feb-12 19:30N 34°17' E 132°24'611.2
2018-Feb-12 18:56N 34°11' E 132°22'511.2
2018-Feb-12 18:30N 34°07' E 132°25'810.1
2018-Feb-12 17:41N 34°03' E 132°34'211.3
2018-Feb-12 17:30N 34°04' E 132°37'9311.0
2018-Feb-12 08:59N 34°27' E 134°26'611.7
2018-Feb-12 08:30N 34°29' E 134°32'611.2
2018-Feb-12 07:59N 34°31' E 134°39'611.5
2018-Feb-12 07:30N 34°33' E 134°45'611.2
2018-Feb-12 07:00N 34°35' E 134°52'610.8
2018-Feb-12 06:30N 34°37' E 134°58'4 9.0
2018-Feb-12 06:00N 34°36' E 135°03'510.3
2018-Feb-12 05:30N 34°37' E 135°09'510.0
2018-Feb-12 05:00N 34°38' E 135°15'2 4.3
2018-Feb-12 04:26N 34°41' E 135°16'0 0.5
2018-Feb-12 04:00N 34°41' E 135°16'1 1.2
2018-Feb-12 03:29N 34°41' E 135°17'0 0.0
2018-Feb-12 02:56N 34°41' E 135°17'0 0.1
2018-Feb-12 02:30N 34°41' E 135°16'0 0.6
2018-Feb-12 02:00N 34°41' E 135°17'2 4.8
2018-Feb-12 01:30N 34°39' E 135°15'0 0.2
2018-Feb-12 01:00N 34°39' E 135°16'0 0.0
2018-Feb-12 00:30N 34°39' E 135°16'0 0.0
2018-Feb-12 00:00N 34°39' E 135°16'0 0.1
2018-Feb-11 23:30N 34°39' E 135°15'0 0.0
2018-Feb-11 23:00N 34°39' E 135°15'0 0.0
2018-Feb-11 22:31N 34°39' E 135°15'0 0.0
2018-Feb-11 22:00N 34°39' E 135°15'0 0.0
2018-Feb-11 21:30N 34°39' E 135°15'0 0.0
2018-Feb-11 21:00N 34°39' E 135°15'2 4.8
2018-Feb-11 20:30N 34°37' E 135°13'611.5
2018-Feb-11 20:00N 34°35' E 135°06'5 9.1
2018-Feb-11 19:30N 34°37' E 135°01'5 9.7
2018-Feb-11 19:00N 34°35' E 134°56'611.2
2018-Feb-11 18:29N 34°33' E 134°49'611.6
2018-Feb-11 18:00N 34°31' E 134°43'611.6
2018-Feb-11 17:30N 34°29' E 134°36'9711.3
2018-Feb-11 08:58N 33°60' E 132°45'612.1
2018-Feb-11 08:29N 33°55' E 132°40'4611.1
2018-Feb-11 04:22N 33°31' E 131°54'410.5
2018-Feb-11 03:58N 33°27' E 131°51'710.9
2018-Feb-11 03:20N 33°22' E 131°46'510.6
2018-Feb-11 02:49N 33°16' E 131°45'1 0.6
2018-Feb-11 00:27N 33°15' E 131°44'3 1.0
2018-Feb-10 21:00N 33°18' E 131°47'5410.6
2018-Feb-10 15:51N 33°53' E 132°36'10110.7
2018-Feb-10 06:22N 34°29' E 134°31'411.5
2018-Feb-10 06:00N 34°30' E 134°35'611.4
2018-Feb-10 05:28N 34°32' E 134°42'511.3
2018-Feb-10 05:00N 34°34' E 134°48'511.1
2018-Feb-10 04:30N 34°36' E 134°55'510.7
2018-Feb-10 04:00N 34°37' E 135°01'510.1
2018-Feb-10 03:30N 34°36' E 135°07'611.9
2018-Feb-10 03:00N 34°37' E 135°14'4 7.7
2018-Feb-10 02:30N 34°41' E 135°13'0 0.3
2018-Feb-10 02:01N 34°41' E 135°12'0 0.0
2018-Feb-10 01:31N 34°41' E 135°12'0 0.0
2018-Feb-10 01:00N 34°41' E 135°12'0 0.0
2018-Feb-10 00:31N 34°41' E 135°12'0 0.0
2018-Feb-09 23:57N 34°41' E 135°12'0 0.0
2018-Feb-09 23:31N 34°41' E 135°12'0 0.0
2018-Feb-09 23:01N 34°41' E 135°12'0 0.0
2018-Feb-09 22:46N 34°41' E 135°12'0 0.0
2018-Feb-09 22:31N 34°41' E 135°12'0 0.0
2018-Feb-09 22:01N 34°41' E 135°12'0 0.0
2018-Feb-09 21:31N 34°41' E 135°12'0 0.0
2018-Feb-09 21:01N 34°41' E 135°12'0 0.0
2018-Feb-09 20:01N 34°41' E 135°12'  
Track history (hours):
 
Tides and Currents Weather Stations Pressure Air Temp Water Temp Dewpoint Dewpoint Depression Visibility Wind Speed Wind Dir Waves Ship Positions

Takatori

Last reported at 2018-Feb-19 04:00 UTC. Time now 2018-Feb-19 04:01 UTC.
Position N 34°39' E 135°15'.

Length 74 m; draft 4 m.

Type: Cargo ship. MMSI: 431501607.

Date/timePositionNaut miles runAvg speedWind from/ knotsBaromVisibWave heightAir tempDewpointWater temp
2018-Feb-19 04:00N 34°39' E 135°15'0 0.0
2018-Feb-19 03:27N 34°39' E 135°15'0 0.0
2018-Feb-19 03:00N 34°39' E 135°15'2 4.6
2018-Feb-19 02:30N 34°41' E 135°17'0 0.0
2018-Feb-19 01:59N 34°41' E 135°17'0 0.5
2018-Feb-19 01:29N 34°41' E 135°16'2 4.6
2018-Feb-19 01:00N 34°39' E 135°16'0 0.4
2018-Feb-19 00:28N 34°39' E 135°15'0 0.1
2018-Feb-19 00:00N 34°39' E 135°15'0 0.1
2018-Feb-18 23:30N 34°39' E 135°15'0 0.0
2018-Feb-18 23:00N 34°39' E 135°15'0 0.0
2018-Feb-18 22:29N 34°39' E 135°15'0 0.0
2018-Feb-18 21:59N 34°39' E 135°15'0 0.0
2018-Feb-18 21:29N 34°39' E 135°15'0 0.1
2018-Feb-18 20:59N 34°39' E 135°15'2 5.0
2018-Feb-18 20:30N 34°37' E 135°13'611.0
2018-Feb-18 20:00N 34°35' E 135°07'713.2
2018-Feb-18 19:31N 34°37' E 134°59'714.2
2018-Feb-18 19:00N 34°34' E 134°51'612.4
2018-Feb-18 18:30N 34°32' E 134°44'611.5
2018-Feb-18 18:00N 34°30' E 134°38'611.2
2018-Feb-18 17:29N 34°27' E 134°31'9210.1
2018-Feb-18 08:19N 33°59' E 132°45'3 9.8
2018-Feb-18 08:00N 33°57' E 132°42'5910.1
2018-Feb-18 02:10N 33°19' E 131°48'211.2
2018-Feb-18 02:00N 33°18' E 131°47'3 1.1
2018-Feb-17 23:08N 33°15' E 131°44'0 0.0
2018-Feb-17 22:56N 33°15' E 131°44'0 0.0
2018-Feb-17 22:20N 33°15' E 131°44'7 5.5
2018-Feb-17 21:07N 33°22' E 131°42'0 0.0
2018-Feb-17 20:43N 33°22' E 131°42'0 0.2
2018-Feb-17 20:25N 33°22' E 131°42'0 0.1
2018-Feb-17 19:58N 33°22' E 131°42'0 0.0
2018-Feb-17 19:25N 33°22' E 131°42'0 0.0
2018-Feb-17 18:55N 33°22' E 131°42'0 0.0
2018-Feb-17 18:19N 33°22' E 131°42'0 0.0
2018-Feb-17 17:55N 33°22' E 131°42'0 0.0
2018-Feb-17 17:25N 33°22' E 131°42'0 0.0
2018-Feb-17 16:55N 33°22' E 131°42'0 0.0
2018-Feb-17 16:25N 33°22' E 131°42'0 0.0
2018-Feb-17 15:55N 33°22' E 131°42'0 0.0
2018-Feb-17 15:22N 33°22' E 131°42'0 0.0
2018-Feb-17 14:52N 33°22' E 131°42'0 0.0
2018-Feb-17 14:25N 33°22' E 131°42'0 0.1
2018-Feb-17 13:55N 33°22' E 131°42'0 0.1
2018-Feb-17 13:19N 33°22' E 131°42'0 0.0
2018-Feb-17 12:55N 33°22' E 131°42'0 0.0
2018-Feb-17 12:22N 33°22' E 131°42'0 0.1
2018-Feb-17 11:55N 33°22' E 131°42'0 0.1
2018-Feb-17 11:28N 33°22' E 131°42'0 0.1
2018-Feb-17 10:58N 33°22' E 131°42'1 1.6
2018-Feb-17 10:28N 33°22' E 131°43'611.3
2018-Feb-17 09:56N 33°25' E 131°49'14210.6
2018-Feb-16 20:30N 34°26' E 134°24'610.7
2018-Feb-16 19:59N 34°28' E 134°31'510.6
2018-Feb-16 19:30N 34°30' E 134°36'510.6
2018-Feb-16 19:00N 34°32' E 134°42'510.1
2018-Feb-16 18:30N 34°34' E 134°48'4 8.8
2018-Feb-16 18:01N 34°35' E 134°53'4 8.2
2018-Feb-16 17:31N 34°37' E 134°57'4 7.3
2018-Feb-16 17:00N 34°37' E 135°02'4 8.4
2018-Feb-16 16:30N 34°37' E 135°07'611.2
2018-Feb-16 16:00N 34°38' E 135°14'2 4.6
2018-Feb-16 15:29N 34°40' E 135°14'0 0.0
2018-Feb-16 14:59N 34°40' E 135°14'0 0.0
2018-Feb-16 14:29N 34°40' E 135°14'0 0.0
2018-Feb-16 13:58N 34°40' E 135°14'0 0.0
2018-Feb-16 13:30N 34°40' E 135°14'0 0.0
2018-Feb-16 13:00N 34°40' E 135°14'0 0.0
2018-Feb-16 12:30N 34°40' E 135°14'0 0.0
2018-Feb-16 12:00N 34°40' E 135°14'0 0.0
2018-Feb-16 11:30N 34°40' E 135°14'0 0.0
2018-Feb-16 10:59N 34°40' E 135°14'0 0.0
2018-Feb-16 10:29N 34°40' E 135°14'0 0.0
2018-Feb-16 09:59N 34°40' E 135°14'0 0.0
2018-Feb-16 09:30N 34°40' E 135°14'0 0.0
2018-Feb-16 08:58N 34°40' E 135°14'0 0.0
2018-Feb-16 08:28N 34°40' E 135°14'0 0.0
2018-Feb-16 07:58N 34°40' E 135°14'0 0.0
2018-Feb-16 07:28N 34°40' E 135°14'0 0.0
2018-Feb-16 06:58N 34°40' E 135°14'2 4.2
2018-Feb-16 06:30N 34°41' E 135°16'0 0.9
2018-Feb-16 05:59N 34°41' E 135°17'0 0.0
2018-Feb-16 05:30N 34°41' E 135°17'2 4.8
2018-Feb-16 05:00N 34°39' E 135°15'0 0.5
2018-Feb-16 04:30N 34°39' E 135°15'1 1.2
2018-Feb-16 04:00N 34°39' E 135°15'0 0.0
2018-Feb-16 03:30N 34°39' E 135°15'0 0.1
2018-Feb-16 03:00N 34°39' E 135°15'0 0.0
2018-Feb-16 02:30N 34°39' E 135°15'0 0.0
2018-Feb-16 02:00N 34°39' E 135°15'0 0.0
2018-Feb-16 01:30N 34°39' E 135°15'0 0.0
2018-Feb-16 01:00N 34°39' E 135°15'0 0.0
2018-Feb-16 00:30N 34°39' E 135°15'0 0.0
2018-Feb-16 00:00N 34°39' E 135°15'0 0.0
2018-Feb-15 23:28N 34°39' E 135°15'0 0.0
2018-Feb-15 23:00N 34°39' E 135°15'0 0.0
2018-Feb-15 22:30N 34°39' E 135°15'0 0.0
2018-Feb-15 22:00N 34°39' E 135°15'0 0.0
2018-Feb-15 21:30N 34°39' E 135°15'0 0.0
2018-Feb-15 21:00N 34°39' E 135°15'0 0.0
2018-Feb-15 20:30N 34°39' E 135°15'0 0.1
2018-Feb-15 20:00N 34°39' E 135°15'4 7.6
2018-Feb-15 19:30N 34°37' E 135°11'611.8
2018-Feb-15 19:00N 34°35' E 135°04'713.2
2018-Feb-15 18:30N 34°36' E 134°56'713.5
2018-Feb-15 18:01N 34°33' E 134°49'612.0
2018-Feb-15 17:30N 34°31' E 134°42'511.3
2018-Feb-15 17:01N 34°29' E 134°36'9810.7
2018-Feb-15 07:52N 34°06' E 132°41'411.1
2018-Feb-15 07:30N 34°04' E 132°36'810.2
2018-Feb-15 06:42N 34°05' E 132°27'611.4
2018-Feb-15 06:11N 34°08' E 132°21'311.3
2018-Feb-15 05:57N 34°10' E 132°18'410.2
2018-Feb-15 05:30N 34°13' E 132°15'0 0.1
2018-Feb-15 04:51N 34°13' E 132°15'0 0.0
2018-Feb-15 04:30N 34°13' E 132°15'0 0.0
2018-Feb-15 04:00N 34°13' E 132°15'0 0.0
2018-Feb-15 03:24N 34°13' E 132°15'0 0.0
2018-Feb-15 02:54N 34°13' E 132°15'0 0.7
2018-Feb-15 02:29N 34°13' E 132°15'0 0.0
2018-Feb-15 01:56N 34°13' E 132°15'0 0.0
2018-Feb-15 01:23N 34°13' E 132°15'0 0.0
2018-Feb-15 00:56N 34°13' E 132°15'0 0.0
2018-Feb-15 00:20N 34°13' E 132°15'0 0.0
2018-Feb-14 23:50N 34°13' E 132°15'0 0.0
2018-Feb-14 23:29N 34°13' E 132°15'0 0.0
2018-Feb-14 22:59N 34°13' E 132°15'0 0.0
2018-Feb-14 22:29N 34°13' E 132°15'1 0.8
2018-Feb-14 21:48N 34°13' E 132°15'0 0.0
2018-Feb-14 21:25N 34°13' E 132°15'0 0.0
2018-Feb-14 20:43N 34°13' E 132°15'0 0.0
2018-Feb-14 20:25N 34°13' E 132°15'0 0.0
2018-Feb-14 19:48N 34°13' E 132°15'0 0.1
2018-Feb-14 19:30N 34°13' E 132°15'510.0
2018-Feb-14 18:58N 34°09' E 132°19'1111.7
2018-Feb-14 18:00N 34°03' E 132°31'611.5
2018-Feb-14 17:30N 34°04' E 132°38'9311.6
2018-Feb-14 09:33N 34°27' E 134°26'211.9
2018-Feb-14 09:25N 34°28' E 134°28'511.6
2018-Feb-14 09:00N 34°29' E 134°33'611.5
2018-Feb-14 08:30N 34°31' E 134°40'611.6
2018-Feb-14 08:00N 34°33' E 134°46'611.4
2018-Feb-14 07:29N 34°36' E 134°53'510.7
2018-Feb-14 07:00N 34°37' E 134°59'5 9.1
2018-Feb-14 06:30N 34°36' E 135°04'511.0
2018-Feb-14 06:01N 34°37' E 135°11'5 9.1
2018-Feb-14 05:31N 34°40' E 135°15'2 3.0
2018-Feb-14 04:58N 34°41' E 135°17'0 0.9
2018-Feb-14 04:30N 34°41' E 135°16'2 4.4
2018-Feb-14 04:00N 34°39' E 135°15'0 0.0
2018-Feb-14 03:30N 34°39' E 135°15'0 0.0
2018-Feb-14 03:00N 34°39' E 135°15'0 0.0
2018-Feb-14 02:30N 34°39' E 135°15'0 0.0
2018-Feb-14 02:00N 34°39' E 135°15'0 0.1
2018-Feb-14 01:30N 34°39' E 135°15'0 0.0
2018-Feb-14 01:00N 34°39' E 135°15'0 0.0
2018-Feb-14 00:30N 34°39' E 135°15'0 0.1
2018-Feb-14 00:00N 34°39' E 135°15'0 0.0
2018-Feb-13 23:30N 34°39' E 135°15'0 0.0
2018-Feb-13 23:00N 34°39' E 135°15'0 0.0
2018-Feb-13 22:30N 34°39' E 135°15'0 0.0
2018-Feb-13 22:00N 34°38' E 135°15'0 0.1
2018-Feb-13 21:30N 34°38' E 135°15'0 0.1
2018-Feb-13 21:00N 34°39' E 135°15'0 0.0
2018-Feb-13 20:30N 34°39' E 135°15'0 0.0
2018-Feb-13 20:00N 34°39' E 135°15'0 0.0
2018-Feb-13 19:30N 34°39' E 135°15'0 0.0
2018-Feb-13 19:00N 34°39' E 135°15'0 0.0
2018-Feb-13 18:30N 34°39' E 135°15'0 0.0
2018-Feb-13 18:00N 34°39' E 135°15'0 0.1
2018-Feb-13 17:30N 34°38' E 135°15'0 0.0
2018-Feb-13 17:00N 34°39' E 135°15'0 0.0
2018-Feb-13 16:30N 34°39' E 135°15'0 0.0
2018-Feb-13 16:00N 34°39' E 135°15'0 0.1
2018-Feb-13 15:30N 34°38' E 135°15'5 9.4
2018-Feb-13 15:00N 34°36' E 135°10'611.9
2018-Feb-13 14:30N 34°36' E 135°03'612.4
2018-Feb-13 14:00N 34°36' E 134°56'612.8
2018-Feb-13 13:30N 34°33' E 134°49'612.0
2018-Feb-13 12:58N 34°31' E 134°41'611.8
2018-Feb-13 12:30N 34°29' E 134°35'9710.4
2018-Feb-13 03:09N 34°05' E 132°41'211.5
2018-Feb-13 03:00N 34°05' E 132°39'16 9.2
2018-Feb-13 01:15N 34°13' E 132°22'311.8
2018-Feb-13 01:00N 34°16' E 132°22'611.5
2018-Feb-13 00:31N 34°20' E 132°26'1 1.8
2018-Feb-12 23:59N 34°21' E 132°26'0 0.0
2018-Feb-12 23:29N 34°21' E 132°26'0 1.0
2018-Feb-12 23:00N 34°21' E 132°26'1 1.1
2018-Feb-12 22:28N 34°20' E 132°26'0 0.0
2018-Feb-12 21:58N 34°20' E 132°26'0 0.0
2018-Feb-12 21:28N 34°20' E 132°26'0 0.0
2018-Feb-12 20:58N 34°20' E 132°26'0 0.0
2018-Feb-12 20:28N 34°20' E 132°26'0 0.0
2018-Feb-12 20:00N 34°20' E 132°26'4 7.5
2018-Feb-12 19:30N 34°17' E 132°24'611.2
2018-Feb-12 18:56N 34°11' E 132°22'511.2
2018-Feb-12 18:30N 34°07' E 132°25'810.1
2018-Feb-12 17:41N 34°03' E 132°34'211.3
2018-Feb-12 17:30N 34°04' E 132°37'9311.0
2018-Feb-12 08:59N 34°27' E 134°26'611.7
2018-Feb-12 08:30N 34°29' E 134°32'611.2
2018-Feb-12 07:59N 34°31' E 134°39'611.5
2018-Feb-12 07:30N 34°33' E 134°45'611.2
2018-Feb-12 07:00N 34°35' E 134°52'610.8
2018-Feb-12 06:30N 34°37' E 134°58'4 9.0
2018-Feb-12 06:00N 34°36' E 135°03'510.3
2018-Feb-12 05:30N 34°37' E 135°09'510.0
2018-Feb-12 05:00N 34°38' E 135°15'2 4.3
2018-Feb-12 04:26N 34°41' E 135°16'0 0.5
2018-Feb-12 04:00N 34°41' E 135°16'1 1.2
2018-Feb-12 03:29N 34°41' E 135°17'0 0.0
2018-Feb-12 02:56N 34°41' E 135°17'0 0.1
2018-Feb-12 02:30N 34°41' E 135°16'0 0.6
2018-Feb-12 02:00N 34°41' E 135°17'2 4.8
2018-Feb-12 01:30N 34°39' E 135°15'0 0.2
2018-Feb-12 01:00N 34°39' E 135°16'0 0.0
2018-Feb-12 00:30N 34°39' E 135°16'0 0.0
2018-Feb-12 00:00N 34°39' E 135°16'0 0.1
2018-Feb-11 23:30N 34°39' E 135°15'0 0.0
2018-Feb-11 23:00N 34°39' E 135°15'0 0.0
2018-Feb-11 22:31N 34°39' E 135°15'0 0.0
2018-Feb-11 22:00N 34°39' E 135°15'0 0.0
2018-Feb-11 21:30N 34°39' E 135°15'0 0.0
2018-Feb-11 21:00N 34°39' E 135°15'2 4.8
2018-Feb-11 20:30N 34°37' E 135°13'611.5
2018-Feb-11 20:00N 34°35' E 135°06'5 9.1
2018-Feb-11 19:30N 34°37' E 135°01'5 9.7
2018-Feb-11 19:00N 34°35' E 134°56'611.2
2018-Feb-11 18:29N 34°33' E 134°49'611.6
2018-Feb-11 18:00N 34°31' E 134°43'611.6
2018-Feb-11 17:30N 34°29' E 134°36'9711.3
2018-Feb-11 08:58N 33°60' E 132°45'612.1
2018-Feb-11 08:29N 33°55' E 132°40'4611.1
2018-Feb-11 04:22N 33°31' E 131°54'410.5
2018-Feb-11 03:58N 33°27' E 131°51'710.9
2018-Feb-11 03:20N 33°22' E 131°46'510.6
2018-Feb-11 02:49N 33°16' E 131°45'1 0.6
2018-Feb-11 00:27N 33°15' E 131°44'3 1.0
2018-Feb-10 21:00N 33°18' E 131°47'5410.6
2018-Feb-10 15:51N 33°53' E 132°36'10110.7
2018-Feb-10 06:22N 34°29' E 134°31'411.5
2018-Feb-10 06:00N 34°30' E 134°35'611.4
2018-Feb-10 05:28N 34°32' E 134°42'511.3
2018-Feb-10 05:00N 34°34' E 134°48'511.1
2018-Feb-10 04:30N 34°36' E 134°55'510.7
2018-Feb-10 04:00N 34°37' E 135°01'510.1
2018-Feb-10 03:30N 34°36' E 135°07'611.9
2018-Feb-10 03:00N 34°37' E 135°14'4 7.7
2018-Feb-10 02:30N 34°41' E 135°13'0 0.3
2018-Feb-10 02:01N 34°41' E 135°12'0 0.0
2018-Feb-10 01:31N 34°41' E 135°12'0 0.0
2018-Feb-10 01:00N 34°41' E 135°12'0 0.0
2018-Feb-10 00:31N 34°41' E 135°12'0 0.0
2018-Feb-09 23:57N 34°41' E 135°12'0 0.0
2018-Feb-09 23:31N 34°41' E 135°12'0 0.0
2018-Feb-09 23:01N 34°41' E 135°12'0 0.0
2018-Feb-09 22:46N 34°41' E 135°12'0 0.0
2018-Feb-09 22:31N 34°41' E 135°12'0 0.0
2018-Feb-09 22:01N 34°41' E 135°12'0 0.0
2018-Feb-09 21:31N 34°41' E 135°12'0 0.0
2018-Feb-09 21:01N 34°41' E 135°12'0 0.0
2018-Feb-09 20:01N 34°41' E 135°12'  

Dump ship's entire track history